sensor_id;sensor_type;location;lat;lon;timestamp;P1;durP1;ratioP1;P2;durP2;ratioP2
38085;SDS011;23896;50.678;10.924;2024-02-26T00:42:02;3.63;;;1.83;;
38085;SDS011;23896;50.678;10.924;2024-02-26T00:44:30;1.90;;;1.67;;
38085;SDS011;23896;50.678;10.924;2024-02-26T00:46:59;2.60;;;1.48;;
38085;SDS011;23896;50.678;10.924;2024-02-26T00:49:28;1.63;;;1.52;;
38085;SDS011;23896;50.678;10.924;2024-02-26T00:51:54;1.70;;;1.38;;
38085;SDS011;23896;50.678;10.924;2024-02-26T00:54:22;1.70;;;1.60;;
38085;SDS011;23896;50.678;10.924;2024-02-26T00:56:48;1.70;;;1.60;;
38085;SDS011;23896;50.678;10.924;2024-02-26T00:59:17;1.90;;;1.50;;
38085;SDS011;23896;50.678;10.924;2024-02-26T01:01:43;2.38;;;2.00;;
38085;SDS011;23896;50.678;10.924;2024-02-26T01:04:13;4.25;;;2.50;;
38085;SDS011;23896;50.678;10.924;2024-02-26T01:06:40;3.45;;;2.47;;
38085;SDS011;23896;50.678;10.924;2024-02-26T01:09:09;5.43;;;2.85;;
38085;SDS011;23896;50.678;10.924;2024-02-26T01:11:35;3.00;;;2.30;;
38085;SDS011;23896;50.678;10.924;2024-02-26T01:14:03;3.67;;;2.25;;
38085;SDS011;23896;50.678;10.924;2024-02-26T01:16:29;2.00;;;1.80;;
38085;SDS011;23896;50.678;10.924;2024-02-26T01:19:01;1.95;;;1.30;;
38085;SDS011;23896;50.678;10.924;2024-02-26T01:21:28;1.42;;;1.33;;
38085;SDS011;23896;50.678;10.924;2024-02-26T01:23:56;2.55;;;1.30;;
38085;SDS011;23896;50.678;10.924;2024-02-26T01:26:22;2.00;;;1.60;;
38085;SDS011;23896;50.678;10.924;2024-02-26T01:28:50;1.20;;;1.10;;
38085;SDS011;23896;50.678;10.924;2024-02-26T01:31:16;1.50;;;1.40;;
38085;SDS011;23896;50.678;10.924;2024-02-26T01:33:42;2.17;;;1.30;;
38085;SDS011;23896;50.678;10.924;2024-02-26T01:36:11;1.40;;;1.15;;
38085;SDS011;23896;50.678;10.924;2024-02-26T01:38:38;1.50;;;1.10;;
38085;SDS011;23896;50.678;10.924;2024-02-26T01:41:06;2.97;;;2.15;;
38085;SDS011;23896;50.678;10.924;2024-02-26T01:44:05;7.80;;;3.85;;
38085;SDS011;23896;50.678;10.924;2024-02-26T01:46:34;6.43;;;3.00;;
38085;SDS011;23896;50.678;10.924;2024-02-26T01:49:11;5.40;;;2.88;;
38085;SDS011;23896;50.678;10.924;2024-02-26T01:51:40;3.85;;;2.80;;
38085;SDS011;23896;50.678;10.924;2024-02-26T01:54:22;2.85;;;1.40;;
38085;SDS011;23896;50.678;10.924;2024-02-26T01:57:08;2.45;;;1.70;;
38085;SDS011;23896;50.678;10.924;2024-02-26T02:49:34;4.70;;;2.70;;
38085;SDS011;23896;50.678;10.924;2024-02-26T02:55:09;3.22;;;2.47;;
38085;SDS011;23896;50.678;10.924;2024-02-26T02:57:42;2.97;;;1.98;;
38085;SDS011;23896;50.678;10.924;2024-02-26T03:00:17;4.28;;;1.90;;
38085;SDS011;23896;50.678;10.924;2024-02-26T03:02:51;4.50;;;2.63;;
38085;SDS011;23896;50.678;10.924;2024-02-26T03:05:43;2.60;;;1.85;;
38085;SDS011;23896;50.678;10.924;2024-02-26T03:08:25;2.00;;;1.55;;
38085;SDS011;23896;50.678;10.924;2024-02-26T03:11:05;4.10;;;1.90;;
38085;SDS011;23896;50.678;10.924;2024-02-26T03:16:54;4.50;;;2.80;;
38085;SDS011;23896;50.678;10.924;2024-02-26T03:19:38;3.35;;;2.08;;
38085;SDS011;23896;50.678;10.924;2024-02-26T03:24:51;3.00;;;2.17;;
38085;SDS011;23896;50.678;10.924;2024-02-26T03:27:33;3.65;;;2.03;;
38085;SDS011;23896;50.678;10.924;2024-02-26T04:55:40;3.33;;;1.95;;
38085;SDS011;23896;50.678;10.924;2024-02-26T04:58:11;3.28;;;2.33;;
38085;SDS011;23896;50.678;10.924;2024-02-26T05:00:39;5.22;;;2.67;;
38085;SDS011;23896;50.678;10.924;2024-02-26T05:03:09;3.60;;;2.53;;
38085;SDS011;23896;50.678;10.924;2024-02-26T05:05:44;2.92;;;2.65;;
